8°C Temp
7°C Dewpoint
93% Humidity
Temperature
14 KM/H
9 MPH
8 KTS
330°
North North
West

Wind Speed
Mostly Scattered
Clouds
Pressure 1018 (hPa) - 30.06 (in)
Visibility 3.7 (mi) - 6.0 (km)

Current Conditions
LTBA
Location Atatürk International 6km (3.2mi)
Metar :LTBA 180350Z 33008KT 6000 SCT006 BKN022 08/07 Q1018 NOSIG RMK RWY17L 34007KT RWY05 32009KT 290V350 RWY23 33007KT 290V350
Tue 18th December 04:50 am

Airport
  Metar Aviation API Data Provided by https://www.checkwx.com/ CSS/SVG/PHP scripts by weather34.com © 2015-2019